EICKEIDL

Guest
Details From EICK - Cork
To EIDL - Donegal
Flight Number -
Tags None
Created
Modified
Stats Distance 197 nm / 365 km
Max Altitude 0 ft / 0 m
Waypoints 9
Social Downloads 3
Likes 0
Share VATSIM

Download

Looking for another format? Having issues loading an existing format? Contact us
Advertisement - Login to hide

Notes

None

Route

EICK CRK KURUM SHA CRN CON SLG CFN EIDL

ID Type Via Altitude Latitude Longitude Leg Dist Tot Dist Heading (true) Name
O EICK APT - 0 ft / 0 m 51.84139˚ -8.49111˚ - 0 nm - Cork
CRK VOR - 0 ft / 0 m 51.84061˚ -8.49428˚ 0 nm 0 nm 248° / 248° CORK VOR-DME
KURUM FIX - 0 ft / 0 m 52.22864˚ -8.66458˚ 24 nm 24 nm 345° / 345° -
SHA VOR - 0 ft / 0 m 52.72100˚ -8.88522˚ 30 nm 54 nm 345° / 345° SHANNON VOR-DME
CRN FIX - 0 ft / 0 m 53.30103˚ -8.94219˚ 34 nm 89 nm 357° / 357° -
CON VOR - 0 ft / 0 m 53.90803˚ -8.82010˚ 36 nm 126 nm 7° / 7° CONNAUGHT VOR-DME
SLG NDB - 0 ft / 0 m 54.27871˚ -8.60008˚ 23 nm 150 nm 19° / 19° -
CFN NDB - 0 ft / 0 m 55.04400˚ -8.33928˚ 46 nm 196 nm 11° / 11° DONEGAL NDB
O EIDL APT - 0 ft / 0 m 55.04417˚ -8.34111˚ 0 nm 197 nm 279° / 279° Donegal

Altitude Profile

Advertisement - Login to hide

Weather


0- 5 10 15 20 25 30 35+ Temperature / ° C

Clouds and Precipitation
Forecast for 2017-12-18 18:00 UTC. Updated an hour ago

Ground ~20,000 ft ~40,000 ft Winds

EICK

Details ICAO EICK (ORK)
Name Cork
Region Ireland
Timezone Europe/Dublin (UTC+0.0)
Stats Elevation 502 ft / 153 m (AMSL)
Location 51.842605° -8.489056°
Runways 2
Magnetic Variation 3.610° W

METAR

EICK 181830Z 18003KT 0600 R17/0750N R35/0700D -DZ FG BKN001 08/08 Q1030 TEMPO 0200

Decode

TAF

Not found

Departure Runways

ID Width Length Bearing (true) Bearing (mag) Surface Threshold Offset Overrun Length
07 148 ft / 45 m 4,281 ft / 1,305 m 62.55° 66.16° Concrete 0 ft / 0 m 0 ft / 0 m
17 148 ft / 45 m 6,992 ft / 2,131 m 159.93° 163.54° Asphalt 0 ft / 0 m 115 ft / 35 m
25 148 ft / 45 m 4,281 ft / 1,305 m 242.57° 246.18° Concrete 0 ft / 0 m 39 ft / 12 m
35 148 ft / 45 m 6,992 ft / 2,131 m 339.94° 343.55° Asphalt 0 ft / 0 m 0 ft / 0 m

EIDL

Details ICAO EIDL (CFN)
Name Donegal
Region Ireland
Timezone Unknown (UTC+0.0)
Stats Elevation 29 ft / 9 m (AMSL)
Location 55.044196° -8.341036°
Runways 1
Magnetic Variation 4.206° W

METAR

EIDL 181830Z 17014KT 9999 OVC013 11/09 Q1026

Decode

TAF

Not found

Destination Runways

ID Width Length Bearing (true) Bearing (mag) Surface Threshold Offset Overrun Length
03 98 ft / 30 m 4,906 ft / 1,495 m 20.15° 24.36° Asphalt 656 ft / 200 m 0 ft / 0 m
21 98 ft / 30 m 4,906 ft / 1,495 m 200.16° 204.37° Asphalt 656 ft / 200 m 0 ft / 0 m

Approach Navaids

Runway Type Ident Frequency Range Bearing (true) Bearing (mag) Slope Elevation
21 Localiser IFN 110.30 MHz 18 nm / 33 km 200.16° 204.37° - 29 ft / 9 m (AMSL)
21 DME IFN 110.30 MHz 18 nm / 33 km - - - 33 ft / 10 m (AMSL)

Popular Alternatives